Maanti, Mongolia
Current Conditions -  °F | °C
As of 4:00 PM on Thursday 23 Oct 2014 (Local Time) from ZMUB Reporting Station
Scattered Clouds Scattered Clouds  
Wind Chill: 50°   Ceiling: Unl
Heat Index: 50°   Visibility: 6mi
Dew Point: 21°   Wind: 2mph
Humidity: 32%   Direction: NA
Pressure: 29.74"   Gusts: NA
Location:  47.3°N, 107.48°E
Report Text: ZMUB 230800Z VRB01MPS 9999 SCT100 10/M06 Q1007 NOSIG RMK QFE648.9 33 MOP
Loading
Personal Weather Stations






























Interactive Weather Map
Tropical Storm Tracking
New forecast layout! Learn more

10-Day Weather Forecast

Advertisements
Track Severe Weather on mobile